createdAt,value
2023-01-20T00:01:34.692Z,0.60
2023-01-20T00:04:01.964Z,0.80
2023-01-20T00:06:29.553Z,0.50
2023-01-20T00:09:00.650Z,0.90
2023-01-20T00:11:30.992Z,0.60
2023-01-20T00:14:01.576Z,0.70
2023-01-20T00:16:31.148Z,0.90
2023-01-20T00:18:58.411Z,0.60
2023-01-20T00:21:25.661Z,0.60
2023-01-20T00:23:52.866Z,0.90
2023-01-20T00:26:23.957Z,0.60
2023-01-20T00:28:55.353Z,0.70
2023-01-20T00:31:29.780Z,0.90
2023-01-20T00:33:59.988Z,0.30
2023-01-20T00:36:31.341Z,0.50
2023-01-20T00:38:59.266Z,0.50
2023-01-20T00:41:26.388Z,0.70
2023-01-20T00:43:53.418Z,0.70
2023-01-20T00:46:22.977Z,0.60
2023-01-20T00:48:50.175Z,0.30
2023-01-20T00:51:17.425Z,0.40
2023-01-20T00:53:44.569Z,0.30
2023-01-20T00:56:11.772Z,0.30
2023-01-20T00:58:38.968Z,0.50
2023-01-20T01:01:06.288Z,0.30
2023-01-20T01:03:33.457Z,0.40
2023-01-20T01:06:15.952Z,0.50
2023-01-20T01:08:44.543Z,0.40
2023-01-20T01:11:13.223Z,0.20
2023-01-20T01:13:40.921Z,0.10
2023-01-20T01:16:16.158Z,0.10
2023-01-20T01:18:43.735Z,0.00
2023-01-20T01:21:15.361Z,-0.10
2023-01-20T01:23:44.286Z,-0.10
2023-01-20T01:26:15.155Z,0.30
2023-01-20T01:28:42.703Z,0.10
2023-01-20T01:31:10.293Z,0.10
2023-01-20T01:33:37.482Z,0.00
2023-01-20T01:36:06.101Z,0.10
2023-01-20T01:38:33.241Z,0.40
2023-01-20T01:41:00.820Z,0.20
2023-01-20T01:43:37.802Z,0.20
2023-01-20T01:46:06.140Z,0.30
2023-01-20T01:48:45.979Z,0.20
2023-01-20T01:51:20.589Z,0.30
2023-01-20T01:54:20.006Z,0.50
2023-01-20T01:56:50.743Z,0.40
2023-01-20T01:59:18.904Z,0.50
2023-01-20T02:01:52.482Z,0.30
2023-01-20T02:04:28.276Z,0.40
2023-01-20T02:07:06.033Z,0.50
2023-01-20T02:09:34.152Z,0.40
2023-01-20T02:12:08.215Z,0.60
2023-01-20T02:14:43.876Z,1.20
2023-01-20T02:17:28.643Z,0.60
2023-01-20T02:20:29.411Z,0.30
2023-01-20T02:23:25.337Z,0.40
2023-01-20T02:26:01.426Z,0.40
2023-01-20T02:28:37.412Z,0.50
2023-01-20T02:31:31.915Z,0.70
2023-01-20T02:34:21.242Z,0.70
2023-01-20T02:37:16.983Z,0.50
2023-01-20T02:40:17.221Z,0.40
2023-01-20T02:42:58.737Z,0.50
2023-01-20T02:46:01.514Z,0.40
2023-01-20T02:48:44.437Z,0.30
2023-01-20T02:51:41.474Z,0.70
2023-01-20T02:54:15.215Z,0.30
2023-01-20T02:56:43.393Z,0.40
2023-01-20T02:59:35.872Z,0.70
2023-01-20T03:02:06.625Z,0.40
2023-01-20T03:04:52.453Z,0.50
2023-01-20T03:07:27.399Z,0.40
2023-01-20T03:09:59.860Z,0.60
2023-01-20T03:12:38.560Z,0.50
2023-01-20T03:15:07.119Z,0.70
2023-01-20T03:17:35.131Z,0.30
2023-01-20T03:20:02.441Z,0.40
2023-01-20T03:22:31.838Z,0.50
2023-01-20T03:24:59.733Z,0.80
2023-01-20T03:27:27.294Z,0.30
2023-01-20T03:29:54.301Z,0.60
2023-01-20T03:32:26.862Z,0.80
2023-01-20T03:34:58.611Z,0.40
2023-01-20T03:37:25.718Z,0.80
2023-01-20T03:39:52.989Z,0.70
2023-01-20T03:42:36.210Z,0.90
2023-01-20T03:45:17.075Z,0.70
2023-01-20T03:48:06.805Z,0.70
2023-01-20T03:50:42.773Z,0.90
2023-01-20T03:53:46.840Z,0.60
2023-01-20T03:56:30.174Z,1.00
2023-01-20T03:59:01.461Z,1.00
2023-01-20T04:01:38.148Z,0.60
2023-01-20T04:04:12.556Z,1.00
2023-01-20T04:06:43.852Z,0.60
2023-01-20T04:09:23.072Z,0.90
2023-01-20T04:11:51.448Z,0.40
2023-01-20T04:14:18.671Z,1.00
2023-01-20T04:16:57.872Z,0.60
2023-01-20T04:19:26.763Z,1.00
2023-01-20T04:22:17.406Z,0.50
2023-01-20T04:25:00.130Z,0.80
2023-01-20T04:27:28.080Z,0.70
2023-01-20T04:29:55.064Z,0.60
2023-01-20T04:32:22.113Z,0.80
2023-01-20T04:34:52.480Z,0.60
2023-01-20T04:37:19.667Z,0.80
2023-01-20T04:39:46.723Z,0.90
2023-01-20T04:42:14.524Z,1.50
2023-01-20T04:44:41.547Z,0.60
2023-01-20T04:47:08.720Z,0.60
2023-01-20T04:49:36.755Z,0.70
2023-01-20T04:52:04.043Z,0.70
2023-01-20T04:54:31.116Z,0.90
2023-01-20T04:56:58.157Z,0.70
2023-01-20T04:59:25.210Z,0.90
2023-01-20T05:01:52.328Z,0.90
2023-01-20T05:04:19.594Z,0.70
2023-01-20T05:06:46.627Z,0.80
2023-01-20T05:09:15.908Z,0.80
2023-01-20T05:11:44.106Z,0.70
2023-01-20T05:14:13.037Z,0.80
2023-01-20T05:16:40.292Z,0.80
2023-01-20T05:19:07.396Z,0.70
2023-01-20T05:21:34.377Z,1.10
2023-01-20T05:24:01.420Z,0.80
2023-01-20T05:26:28.511Z,0.70
2023-01-20T05:28:58.741Z,0.60
2023-01-20T05:31:26.183Z,0.80
2023-01-20T05:33:53.350Z,0.70
2023-01-20T05:36:20.509Z,0.70
2023-01-20T05:38:47.636Z,0.70
2023-01-20T05:41:16.761Z,0.80
2023-01-20T05:43:43.780Z,0.80
2023-01-20T05:46:11.045Z,0.50
2023-01-20T05:48:38.231Z,0.70
2023-01-20T05:51:05.440Z,0.70
2023-01-20T05:53:32.508Z,0.60
2023-01-20T05:56:05.910Z,0.60
2023-01-20T05:58:34.343Z,0.40
2023-01-20T06:01:11.227Z,0.40
2023-01-20T06:03:39.035Z,0.40
2023-01-20T06:06:14.414Z,0.40
2023-01-20T06:08:42.393Z,0.20
2023-01-20T06:11:09.576Z,0.20
2023-01-20T06:13:36.976Z,0.30
2023-01-20T06:16:07.159Z,0.10
2023-01-20T06:18:35.419Z,0.10
2023-01-20T06:21:03.049Z,0.30
2023-01-20T06:23:30.207Z,0.20
2023-01-20T06:26:11.204Z,0.30
2023-01-20T06:28:38.862Z,0.40
2023-01-20T06:31:15.015Z,0.30
2023-01-20T06:33:43.349Z,0.40
2023-01-20T06:36:13.773Z,0.70
2023-01-20T06:38:41.077Z,0.30
2023-01-20T06:41:15.552Z,0.30
2023-01-20T06:43:42.735Z,0.20
2023-01-20T06:46:18.286Z,0.20
2023-01-20T06:48:46.392Z,0.00
2023-01-20T06:51:20.542Z,-0.10
2023-01-20T06:53:48.168Z,0.30
2023-01-20T06:56:16.391Z,0.20
2023-01-20T06:58:43.810Z,1.10
2023-01-20T07:01:31.733Z,0.10
2023-01-20T07:04:02.277Z,0.20
2023-01-20T07:06:31.853Z,0.30
2023-01-20T07:09:01.022Z,0.50
2023-01-20T07:11:31.454Z,0.30
2023-01-20T07:13:58.975Z,0.30
2023-01-20T07:16:26.149Z,0.60
2023-01-20T07:18:54.182Z,0.60
2023-01-20T07:21:23.006Z,0.40
2023-01-20T07:23:51.695Z,0.70
2023-01-20T07:26:22.306Z,1.00
2023-01-20T07:28:53.388Z,0.60
2023-01-20T07:31:26.763Z,1.00
2023-01-20T07:33:57.540Z,0.80
2023-01-20T07:36:25.124Z,1.30
2023-01-20T07:38:53.492Z,0.80
2023-01-20T07:41:21.896Z,1.10
2023-01-20T07:43:52.106Z,1.10
2023-01-20T07:46:20.439Z,1.00
2023-01-20T07:48:48.528Z,1.20
2023-01-20T07:51:16.648Z,1.00
2023-01-20T07:53:47.603Z,1.10
2023-01-20T07:56:20.375Z,1.50
2023-01-20T07:58:49.271Z,1.40
2023-01-20T08:01:29.982Z,1.40
2023-01-20T08:04:00.675Z,1.30
2023-01-20T08:06:31.053Z,1.30
2023-01-20T08:09:02.228Z,1.50
2023-01-20T08:11:49.515Z,1.60
2023-01-20T08:14:16.754Z,1.40
2023-01-20T08:16:43.903Z,1.70
2023-01-20T08:19:10.992Z,1.70
2023-01-20T08:21:41.096Z,1.60
2023-01-20T08:24:10.575Z,1.50
2023-01-20T08:26:37.785Z,1.60
2023-01-20T08:29:08.753Z,1.90
2023-01-20T08:31:37.061Z,1.90
2023-01-20T08:34:05.434Z,1.80
2023-01-20T08:36:36.426Z,1.80
2023-01-20T08:39:07.308Z,2.30
2023-01-20T08:41:38.995Z,2.40
2023-01-20T08:44:08.293Z,2.20
2023-01-20T08:46:40.489Z,2.10
2023-01-20T08:49:15.501Z,2.20
2023-01-20T08:51:45.062Z,2.20
2023-01-20T08:54:12.536Z,2.40
2023-01-20T08:56:39.805Z,2.00
2023-01-20T08:59:07.354Z,2.30
2023-01-20T09:01:45.975Z,2.30
2023-01-20T09:04:13.836Z,2.50
2023-01-20T09:06:50.425Z,2.50
2023-01-20T09:09:20.641Z,2.60
2023-01-20T09:11:51.687Z,2.50
2023-01-20T09:14:23.750Z,2.60
2023-01-20T09:16:51.924Z,2.60
2023-01-20T09:19:19.317Z,2.80
2023-01-20T09:21:46.406Z,2.70
2023-01-20T09:24:13.740Z,2.90
2023-01-20T09:26:40.996Z,2.80
2023-01-20T09:29:18.532Z,3.70
2023-01-20T09:32:03.691Z,3.00
2023-01-20T09:34:31.673Z,3.10
2023-01-20T09:37:20.790Z,3.20
2023-01-20T09:40:07.881Z,3.40
2023-01-20T09:43:44.478Z,3.00
2023-01-20T09:46:44.207Z,3.30
2023-01-20T09:49:51.687Z,3.10
2023-01-20T09:52:47.621Z,3.00
2023-01-20T09:55:48.981Z,3.20
2023-01-20T09:58:34.340Z,3.20
2023-01-20T10:01:19.055Z,3.30
2023-01-20T10:03:57.143Z,3.40
2023-01-20T10:06:35.022Z,3.40
2023-01-20T10:09:18.429Z,3.70
2023-01-20T10:11:49.395Z,3.10
2023-01-20T10:14:29.624Z,3.30
2023-01-20T10:17:14.869Z,3.40
2023-01-20T10:19:58.994Z,3.40
2023-01-20T10:22:31.819Z,3.30
2023-01-20T10:25:12.404Z,3.30
2023-01-20T10:27:58.695Z,3.50
2023-01-20T10:30:34.876Z,3.40
2023-01-20T10:33:21.352Z,3.40
2023-01-20T10:35:53.558Z,3.40
2023-01-20T10:38:32.275Z,3.40
2023-01-20T10:41:17.173Z,3.30
2023-01-20T10:43:45.540Z,3.40
2023-01-20T10:46:50.995Z,3.60
2023-01-20T10:49:59.341Z,3.40
2023-01-20T10:52:38.312Z,3.30
2023-01-20T10:56:01.018Z,3.30
2023-01-20T10:58:35.401Z,3.50
2023-01-20T11:01:09.721Z,3.50
2023-01-20T11:03:46.130Z,3.30
2023-01-20T11:06:26.888Z,3.40
2023-01-20T11:08:56.081Z,3.50
2023-01-20T11:11:25.962Z,3.50
2023-01-20T11:13:54.729Z,3.40
2023-01-20T11:16:31.688Z,3.50
2023-01-20T11:19:06.259Z,3.70
2023-01-20T11:21:37.103Z,3.40
2023-01-20T11:24:34.855Z,3.60
2023-01-20T11:27:17.064Z,3.40
2023-01-20T11:30:01.420Z,3.40
2023-01-20T11:32:31.835Z,3.60
2023-01-20T11:35:02.799Z,3.50
2023-01-20T11:37:39.282Z,3.50
2023-01-20T11:40:28.390Z,3.40
2023-01-20T11:42:55.826Z,3.70
2023-01-20T11:45:35.678Z,3.60
2023-01-20T11:48:16.505Z,3.50
2023-01-20T11:51:01.604Z,3.60
2023-01-20T11:53:32.447Z,3.60
2023-01-20T11:56:19.869Z,3.60
2023-01-20T11:58:59.134Z,3.60
2023-01-20T12:01:30.649Z,3.70
2023-01-20T12:04:29.992Z,3.60
2023-01-20T12:07:11.865Z,3.50
2023-01-20T12:09:47.040Z,3.50
2023-01-20T12:12:38.368Z,3.30
2023-01-20T12:15:24.248Z,3.10
2023-01-20T12:18:00.430Z,3.10
2023-01-20T12:20:54.802Z,3.10
2023-01-20T12:23:55.322Z,3.10
2023-01-20T12:26:24.846Z,3.20
2023-01-20T12:29:03.359Z,3.10
2023-01-20T12:31:31.940Z,3.00
2023-01-20T12:34:24.272Z,2.70
2023-01-20T12:37:14.270Z,3.20
2023-01-20T12:39:53.292Z,3.10
2023-01-20T12:43:08.199Z,3.10
2023-01-20T12:46:08.477Z,2.90
2023-01-20T12:48:51.502Z,3.10
2023-01-20T12:51:48.708Z,2.70
2023-01-20T12:54:47.152Z,3.20
2023-01-20T12:57:25.978Z,3.00
2023-01-20T13:00:24.674Z,3.00
2023-01-20T13:03:31.071Z,3.10
2023-01-20T13:06:32.058Z,3.00
2023-01-20T13:09:18.881Z,3.10
2023-01-20T13:12:09.468Z,3.00
2023-01-20T13:14:53.171Z,2.80
2023-01-20T13:18:11.307Z,3.00
2023-01-20T13:20:43.038Z,2.80
2023-01-20T13:23:35.140Z,2.90
2023-01-20T13:26:06.097Z,3.30
2023-01-20T13:28:33.451Z,3.20
2023-01-20T13:31:40.751Z,2.70
2023-01-20T13:34:40.368Z,3.20
2023-01-20T13:37:25.568Z,2.80
2023-01-20T13:39:55.002Z,2.90
2023-01-20T13:42:38.325Z,2.70
2023-01-20T13:45:14.933Z,3.10
2023-01-20T13:48:02.396Z,2.70
2023-01-20T13:50:45.997Z,2.70
2023-01-20T13:53:25.723Z,2.60
2023-01-20T13:55:55.827Z,2.80
2023-01-20T13:58:30.866Z,2.90
2023-01-20T14:01:02.368Z,3.00
2023-01-20T14:03:33.106Z,2.80
2023-01-20T14:06:12.597Z,2.70
2023-01-20T14:08:49.450Z,2.80
2023-01-20T14:11:22.577Z,2.60
2023-01-20T14:14:05.689Z,2.60
2023-01-20T14:16:35.765Z,2.60
2023-01-20T14:19:27.963Z,2.70
2023-01-20T14:22:03.664Z,2.60
2023-01-20T14:24:37.795Z,2.50
2023-01-20T14:27:32.378Z,2.50
2023-01-20T14:30:21.195Z,2.50
2023-01-20T14:32:51.332Z,2.60
2023-01-20T14:35:33.325Z,2.50
2023-01-20T14:38:01.293Z,2.50
2023-01-20T14:40:35.927Z,2.40
2023-01-20T14:43:16.730Z,2.40
2023-01-20T14:45:48.392Z,2.50
2023-01-20T14:48:32.480Z,2.40
2023-01-20T14:51:02.836Z,2.40
2023-01-20T14:53:29.987Z,2.30
2023-01-20T14:56:15.518Z,2.40
2023-01-20T14:58:51.295Z,2.40
2023-01-20T15:01:25.715Z,2.50
2023-01-20T15:03:59.557Z,2.60
2023-01-20T15:06:27.083Z,2.40
2023-01-20T15:09:06.036Z,2.60
2023-01-20T15:11:35.766Z,2.40
2023-01-20T15:14:08.828Z,2.30
2023-01-20T15:16:49.545Z,2.60
2023-01-20T15:19:16.781Z,2.40
2023-01-20T15:21:56.538Z,2.10
2023-01-20T15:24:30.860Z,2.50
2023-01-20T15:27:03.204Z,2.30
2023-01-20T15:29:39.407Z,2.60
2023-01-20T15:32:13.049Z,2.00
2023-01-20T15:34:40.448Z,2.40
2023-01-20T15:37:21.160Z,2.50
2023-01-20T15:39:48.247Z,2.40
2023-01-20T15:42:15.959Z,2.30
2023-01-20T15:44:43.030Z,2.40
2023-01-20T15:47:31.242Z,2.30
2023-01-20T15:49:58.856Z,2.20
2023-01-20T15:52:26.141Z,2.40
2023-01-20T15:54:53.312Z,2.30
2023-01-20T15:57:20.472Z,2.30
2023-01-20T15:59:49.799Z,2.10
2023-01-20T16:02:23.615Z,2.40
2023-01-20T16:04:50.928Z,2.30
2023-01-20T16:07:21.772Z,2.40
2023-01-20T16:09:49.310Z,1.60
2023-01-20T16:12:19.291Z,2.40
2023-01-20T16:14:46.357Z,2.10
2023-01-20T16:17:17.415Z,2.40
2023-01-20T16:19:44.973Z,1.90
2023-01-20T16:22:13.570Z,2.30
2023-01-20T16:24:42.498Z,2.20
2023-01-20T16:27:21.214Z,2.30
2023-01-20T16:29:49.405Z,2.30
2023-01-20T16:32:18.264Z,2.20
2023-01-20T16:34:47.285Z,2.20
2023-01-20T16:37:15.061Z,2.30
2023-01-20T16:39:44.583Z,1.90
2023-01-20T16:42:16.762Z,1.90
2023-01-20T16:44:43.923Z,1.90
2023-01-20T16:47:11.202Z,2.30
2023-01-20T16:49:39.079Z,2.20
2023-01-20T16:52:06.906Z,2.30
2023-01-20T16:54:34.225Z,2.00
2023-01-20T16:57:01.602Z,1.90
2023-01-20T16:59:29.365Z,2.30
2023-01-20T17:01:56.473Z,2.00
2023-01-20T17:04:23.711Z,2.00
2023-01-20T17:06:53.016Z,2.00
2023-01-20T17:09:20.171Z,2.30
2023-01-20T17:11:47.330Z,2.20
2023-01-20T17:14:15.719Z,2.00
2023-01-20T17:16:42.855Z,1.90
2023-01-20T17:19:10.387Z,2.00
2023-01-20T17:21:39.261Z,1.90
2023-01-20T17:24:07.674Z,1.80
2023-01-20T17:26:35.086Z,2.10
2023-01-20T17:29:05.395Z,2.40
2023-01-20T17:31:35.720Z,2.00
2023-01-20T17:34:05.100Z,2.00
2023-01-20T17:36:34.935Z,2.00
2023-01-20T17:39:06.594Z,2.00
2023-01-20T17:41:35.035Z,2.10
2023-01-20T17:44:04.290Z,2.00
2023-01-20T17:46:35.699Z,1.90
2023-01-20T17:49:06.494Z,1.90
2023-01-20T17:51:33.927Z,1.90
2023-01-20T17:54:03.738Z,2.00
2023-01-20T17:56:31.582Z,2.00
2023-01-20T17:58:58.713Z,1.80
2023-01-20T18:01:29.873Z,2.10
2023-01-20T18:03:59.029Z,1.80
2023-01-20T18:06:28.548Z,1.80
2023-01-20T18:08:59.661Z,1.90
2023-01-20T18:11:31.209Z,1.90
2023-01-20T18:14:00.661Z,2.70
2023-01-20T18:16:32.260Z,1.40
2023-01-20T18:18:59.426Z,1.90
2023-01-20T18:21:33.232Z,1.90
2023-01-20T18:24:02.771Z,2.00
2023-01-20T18:26:33.374Z,1.60
2023-01-20T18:29:04.604Z,1.50
2023-01-20T18:31:33.739Z,1.60
2023-01-20T18:34:05.045Z,1.90
2023-01-20T18:36:36.237Z,1.80
2023-01-20T18:39:16.398Z,1.90
2023-01-20T18:41:44.429Z,1.30
2023-01-20T18:44:12.239Z,2.00
2023-01-20T18:46:39.965Z,1.90
2023-01-20T18:49:09.717Z,1.90
2023-01-20T18:51:37.170Z,1.50
2023-01-20T18:54:12.462Z,1.40
2023-01-20T18:56:40.419Z,1.30
2023-01-20T18:59:08.337Z,1.30
2023-01-20T19:01:39.916Z,1.40
2023-01-20T19:04:10.181Z,1.60
2023-01-20T19:06:40.931Z,1.40
2023-01-20T19:09:08.653Z,1.20
2023-01-20T19:11:40.422Z,1.60
2023-01-20T19:14:14.207Z,1.30
2023-01-20T19:16:45.342Z,1.60
2023-01-20T19:19:13.569Z,1.40
2023-01-20T19:21:40.936Z,1.30
2023-01-20T19:24:08.546Z,1.30
2023-01-20T19:26:39.044Z,1.30
2023-01-20T19:29:11.845Z,1.20
2023-01-20T19:31:40.239Z,1.60
2023-01-20T19:34:09.437Z,1.40
2023-01-20T19:36:36.936Z,1.60
2023-01-20T19:39:05.172Z,1.30
2023-01-20T19:41:34.469Z,1.40
2023-01-20T19:44:04.677Z,1.10
2023-01-20T19:46:35.200Z,1.20
2023-01-20T19:49:03.167Z,1.20
2023-01-20T19:51:32.156Z,1.30
2023-01-20T19:54:01.466Z,1.40
2023-01-20T19:56:34.792Z,1.20
2023-01-20T19:59:02.518Z,1.60
2023-01-20T20:01:37.300Z,1.60
2023-01-20T20:04:11.505Z,1.70
2023-01-20T20:06:48.475Z,1.20
2023-01-20T20:09:23.383Z,1.40
2023-01-20T20:11:50.949Z,1.40
2023-01-20T20:14:21.468Z,1.40
2023-01-20T20:16:49.973Z,1.40
2023-01-20T20:19:19.888Z,1.50
2023-01-20T20:21:47.447Z,1.30
2023-01-20T20:24:17.658Z,1.10
2023-01-20T20:26:46.282Z,1.50
2023-01-20T20:29:16.471Z,1.40
2023-01-20T20:31:44.087Z,1.20
2023-01-20T20:34:19.237Z,1.30
2023-01-20T20:36:46.418Z,1.30
2023-01-20T20:39:18.610Z,1.40
2023-01-20T20:41:46.533Z,1.60
2023-01-20T20:44:13.642Z,4.30
2023-01-20T20:46:41.061Z,1.40
2023-01-20T20:49:12.718Z,1.30
2023-01-20T20:51:39.720Z,1.30
2023-01-20T20:54:06.710Z,1.30
2023-01-20T20:56:33.729Z,2.60
2023-01-20T20:59:03.605Z,1.40
2023-01-20T21:01:33.734Z,1.20
2023-01-20T21:04:04.477Z,1.50
2023-01-20T21:06:32.852Z,1.30
2023-01-20T21:09:00.536Z,1.30
2023-01-20T21:11:28.889Z,1.20
2023-01-20T21:13:56.441Z,1.30
2023-01-20T21:16:25.602Z,1.30
2023-01-20T21:18:58.357Z,1.30
2023-01-20T21:21:25.860Z,1.20
2023-01-20T21:23:57.224Z,1.10
2023-01-20T21:26:29.775Z,1.20
2023-01-20T21:29:01.828Z,1.20
2023-01-20T21:31:30.957Z,1.20
2023-01-20T21:34:00.495Z,1.10
2023-01-20T21:36:29.572Z,1.30
2023-01-20T21:38:58.930Z,1.20
2023-01-20T21:41:25.993Z,2.30
2023-01-20T21:44:11.661Z,1.20
2023-01-20T21:46:40.746Z,1.10
2023-01-20T21:49:29.842Z,1.20
2023-01-20T21:52:15.796Z,1.10
2023-01-20T21:54:45.132Z,0.90
2023-01-20T21:57:12.816Z,1.30
2023-01-20T21:59:39.934Z,1.00
2023-01-20T22:02:07.998Z,1.30
2023-01-20T22:04:35.297Z,1.10
2023-01-20T22:07:03.491Z,1.20
2023-01-20T22:09:30.569Z,1.20
2023-01-20T22:11:57.652Z,0.80
2023-01-20T22:14:26.081Z,1.00
2023-01-20T22:16:53.273Z,1.20
2023-01-20T22:19:22.783Z,1.00
2023-01-20T22:21:50.086Z,0.90
2023-01-20T22:24:18.243Z,0.90
2023-01-20T22:26:49.870Z,0.90
2023-01-20T22:29:19.722Z,1.30
2023-01-20T22:31:47.629Z,0.90
2023-01-20T22:34:14.830Z,1.40
2023-01-20T22:36:41.970Z,0.90
2023-01-20T22:39:12.015Z,0.90
2023-01-20T22:41:39.770Z,0.90
2023-01-20T22:44:14.146Z,1.10
2023-01-20T22:46:43.582Z,1.30
2023-01-20T22:49:19.571Z,0.90
2023-01-20T22:51:46.737Z,1.10
2023-01-20T22:54:16.899Z,0.70
2023-01-20T22:56:44.180Z,0.90
2023-01-20T22:59:16.061Z,2.10
2023-01-20T23:01:43.158Z,1.10
2023-01-20T23:04:11.044Z,1.00
2023-01-20T23:06:38.288Z,1.00
2023-01-20T23:09:10.658Z,1.20
2023-01-20T23:11:40.473Z,1.00
2023-01-20T23:14:12.944Z,1.00
2023-01-20T23:16:43.461Z,1.10
2023-01-20T23:19:11.145Z,1.00
2023-01-20T23:21:38.292Z,1.00
2023-01-20T23:24:05.754Z,1.00
2023-01-20T23:26:34.370Z,1.00
2023-01-20T23:29:01.671Z,1.00
2023-01-20T23:31:33.279Z,0.80
2023-01-20T23:34:00.518Z,1.00
2023-01-20T23:36:27.800Z,1.00
2023-01-20T23:38:56.517Z,1.00
2023-01-20T23:41:24.673Z,1.40
2023-01-20T23:43:52.341Z,1.20
2023-01-20T23:46:19.668Z,1.40
2023-01-20T23:48:47.858Z,1.00
2023-01-20T23:51:15.821Z,1.30
2023-01-20T23:53:43.293Z,1.10
2023-01-20T23:56:19.141Z,1.40
2023-01-20T23:58:46.714Z,0.90
